Time;durP1;ratioP1;P1;durP2;ratioP2;P2;SDS_P1;SDS_P2;PMS_P1;PMS_P2;Temp;Humidity;BMP_temperature;BMP_pressure;BME280_temperature;BME280_humidity;BME280_pressure;Samples;Min_cycle;Max_cycle;Signal;HPM_P1;HPM_P2
2022/03/27 00:01:44;;;;;;;21.87;9.70;;;;;;;8.28;100.00;100004.66;1700106;80;20983;-91
2022/03/27 00:04:11;;;;;;;22.30;8.93;;;;;;;8.32;100.00;99999.03;1746805;80;21069;-90
2022/03/27 00:06:37;;;;;;;27.13;9.73;;;;;;;8.34;100.00;100009.80;1722413;80;21040;-92
2022/03/27 00:09:03;;;;;;;6.85;2.20;;;;;;;8.38;100.00;100104.05;1747231;80;20914;-92
2022/03/27 00:11:30;;;;;;;6.12;1.57;;;;;;;7.94;100.00;100135.06;1750678;80;21014;-91
2022/03/27 00:14:03;;;;;;;8.90;1.22;;;;;;;7.10;100.00;100122.88;1747019;81;21007;-91
2022/03/27 00:16:30;;;;;;;2.50;0.80;;;;;;;6.60;100.00;100121.11;1680721;84;21109;-91
2022/03/27 00:18:56;;;;;;;2.00;0.60;;;;;;;6.13;100.00;100126.78;1671366;84;21627;-91
2022/03/27 00:21:23;;;;;;;9.05;1.00;;;;;;;5.72;100.00;100135.91;1670792;83;21626;-89
2022/03/27 00:23:52;;;;;;;4.65;0.65;;;;;;;5.37;100.00;100160.89;1637778;85;21420;-91
2022/03/27 00:26:20;;;;;;;7.33;0.78;;;;;;;5.10;100.00;100177.95;1656148;84;21034;-91
2022/03/27 00:28:47;;;;;;;2.12;0.80;;;;;;;4.95;100.00;100182.44;1661969;84;21145;-90
2022/03/27 00:31:13;;;;;;;2.90;0.95;;;;;;;4.85;100.00;100188.86;1630019;86;21686;-89
2022/03/27 00:33:42;;;;;;;2.75;0.62;;;;;;;4.72;100.00;100192.58;1668882;84;21725;-90
2022/03/27 00:36:10;;;;;;;4.10;0.72;;;;;;;4.63;100.00;100196.11;1662531;84;21043;-91
2022/03/27 00:38:37;;;;;;;4.42;0.78;;;;;;;4.48;100.00;100207.22;1654802;84;21079;-91
2022/03/27 00:41:05;;;;;;;2.52;0.82;;;;;;;4.37;100.00;100201.34;1669394;84;21479;-91
2022/03/27 00:43:36;;;;;;;2.40;0.57;;;;;;;4.29;100.00;100202.98;1660251;84;21105;-89
2022/03/27 00:46:03;;;;;;;5.05;0.80;;;;;;;4.19;100.00;100214.74;1676691;84;21066;-92
2022/03/27 00:48:29;;;;;;;3.50;1.12;;;;;;;4.12;100.00;100211.34;1668148;84;21508;-93
2022/03/27 00:50:56;;;;;;;8.88;0.75;;;;;;;4.03;100.00;100215.68;1662736;84;21276;-93
2022/03/27 00:53:23;;;;;;;3.22;1.15;;;;;;;3.97;100.00;100215.25;1672926;84;21126;-93
2022/03/27 00:55:49;;;;;;;4.67;1.27;;;;;;;3.89;100.00;100228.88;1664052;84;21130;-93
2022/03/27 00:58:19;;;;;;;7.90;0.93;;;;;;;3.80;100.00;100245.70;1667486;84;21047;-90
2022/03/27 01:00:56;;;;;;;15.25;1.20;;;;;;;3.64;100.00;100247.09;1657710;84;21141;-92
2022/03/27 01:03:26;;;;;;;4.10;0.78;;;;;;;3.45;100.00;100248.15;1658349;84;21217;-89
2022/03/27 01:05:55;;;;;;;3.87;0.90;;;;;;;3.34;100.00;100258.20;1669831;84;21211;-90
2022/03/27 01:11:19;;;;;;;1.70;0.70;;;;;;;3.15;100.00;100261.36;1604268;88;21112;-88
2022/03/27 01:13:56;;;;;;;7.45;1.45;;;;;;;3.12;100.00;100262.61;1634875;85;21217;-88
2022/03/27 01:16:47;;;;;;;2.47;0.70;;;;;;;3.05;100.00;100262.36;1653042;85;21080;-86
2022/03/27 01:19:15;;;;;;;1.70;0.62;;;;;;;3.05;100.00;100257.03;1656787;85;21287;-88
2022/03/27 01:21:47;;;;;;;2.55;0.65;;;;;;;3.05;100.00;100260.50;1657301;85;21629;-87
2022/03/27 01:24:17;;;;;;;6.03;1.10;;;;;;;3.06;100.00;100268.81;1656631;85;20980;-87
2022/03/27 01:26:44;;;;;;;3.77;1.12;;;;;;;3.06;100.00;100270.63;1655686;85;21257;-87
2022/03/27 01:29:10;;;;;;;2.12;0.78;;;;;;;3.02;100.00;100263.61;1655339;85;21076;-88
2022/03/27 01:31:37;;;;;;;2.15;0.78;;;;;;;3.04;100.00;100268.73;1657796;85;21186;-88
2022/03/27 01:34:04;;;;;;;3.42;1.07;;;;;;;3.02;100.00;100269.45;1657058;85;21606;-88
2022/03/27 01:36:37;;;;;;;2.72;0.82;;;;;;;3.00;100.00;100275.01;1654628;85;21210;-88
2022/03/27 01:39:10;;;;;;;4.58;0.93;;;;;;;2.98;100.00;100263.75;1677668;83;21021;-88
2022/03/27 01:41:37;;;;;;;5.37;0.80;;;;;;;2.99;100.00;100253.40;1687312;83;21082;-87
2022/03/27 01:44:13;;;;;;;2.40;0.95;;;;;;;2.99;100.00;100261.37;1689355;84;21825;-88
2022/03/27 01:46:42;;;;;;;5.37;0.88;;;;;;;3.01;100.00;100265.98;1680260;84;21023;-88
2022/03/27 01:49:12;;;;;;;3.72;0.88;;;;;;;3.02;100.00;100264.94;1682565;83;21051;-88
2022/03/27 01:51:40;;;;;;;2.60;1.17;;;;;;;2.99;100.00;100265.38;1684639;84;21232;-88
2022/03/27 01:54:07;;;;;;;6.45;1.20;;;;;;;2.97;100.00;100252.79;1680099;83;21625;-87
2022/03/27 01:56:33;;;;;;;4.65;0.75;;;;;;;2.99;100.00;100258.72;1682599;84;21089;-87
2022/03/27 01:59:01;;;;;;;5.37;1.32;;;;;;;3.02;100.00;100253.48;1686470;84;21112;-87
2022/03/27 02:01:27;;;;;;;4.05;1.10;;;;;;;3.04;100.00;100254.89;1685460;84;21117;-87
2022/03/27 02:03:55;;;;;;;4.03;1.07;;;;;;;3.04;100.00;100257.56;1682851;83;21144;-87
2022/03/27 02:06:23;;;;;;;3.47;1.10;;;;;;;3.04;100.00;100253.56;1681505;84;21637;-87
2022/03/27 02:08:50;;;;;;;4.40;1.05;;;;;;;3.04;100.00;100250.91;1683434;84;21035;-87
2022/03/27 02:11:16;;;;;;;4.87;1.05;;;;;;;3.07;100.00;100251.80;1685270;83;21103;-87
2022/03/27 02:13:42;;;;;;;4.58;1.10;;;;;;;3.06;100.00;100251.51;1703609;81;21023;-87
2022/03/27 02:16:09;;;;;;;2.25;0.88;;;;;;;3.06;100.00;100259.49;1741267;80;21038;-86
2022/03/27 02:18:36;;;;;;;1.62;0.88;;;;;;;3.04;100.00;100256.23;1739777;81;21046;-86
2022/03/27 02:21:03;;;;;;;2.15;0.98;;;;;;;3.02;100.00;100261.47;1743281;81;21911;-86
2022/03/27 02:23:30;;;;;;;3.80;1.05;;;;;;;3.00;100.00;100258.20;1695580;82;21039;-86
2022/03/27 02:25:57;;;;;;;3.27;1.30;;;;;;;3.03;100.00;100259.94;1687065;83;21012;-86
2022/03/27 02:28:24;;;;;;;4.30;0.80;;;;;;;3.01;100.00;100265.98;1684054;83;21713;-86
2022/03/27 02:30:51;;;;;;;2.05;0.90;;;;;;;2.99;100.00;100269.37;1699181;82;21107;-85
2022/03/27 02:33:17;;;;;;;5.95;1.20;;;;;;;2.99;100.00;100272.03;1685503;82;21072;-85
2022/03/27 02:35:44;;;;;;;3.42;1.15;;;;;;;2.97;100.00;100279.41;1736473;81;21023;-86
2022/03/27 02:38:10;;;;;;;2.77;0.88;;;;;;;2.94;100.00;100278.52;1683484;83;21053;-86
2022/03/27 02:40:39;;;;;;;3.00;0.80;;;;;;;2.93;100.00;100279.03;1686188;83;21106;-85
2022/03/27 02:43:06;;;;;;;6.70;1.02;;;;;;;2.93;100.00;100288.87;1713658;82;21046;-85
2022/03/27 02:45:33;;;;;;;3.60;0.93;;;;;;;2.91;100.00;100286.93;1694866;82;21153;-85
2022/03/27 02:48:01;;;;;;;6.47;1.25;;;;;;;2.89;100.00;100294.34;1668907;82;21139;-85
2022/03/27 02:50:29;;;;;;;1.47;0.88;;;;;;;2.85;100.00;100293.12;1673543;83;21105;-86
2022/03/27 02:52:56;;;;;;;2.87;0.90;;;;;;;2.83;100.00;100290.70;1688865;82;21010;-85
2022/03/27 02:55:23;;;;;;;1.37;0.70;;;;;;;2.82;100.00;100294.36;1686881;82;21258;-85
2022/03/27 02:57:50;;;;;;;4.28;0.98;;;;;;;2.79;100.00;100301.97;1693891;82;21185;-85
2022/03/27 03:00:17;;;;;;;6.53;1.10;;;;;;;2.76;100.00;100300.55;1700184;82;21132;-85
2022/03/27 03:02:44;;;;;;;3.95;1.10;;;;;;;2.68;100.00;100300.31;1693653;82;20996;-85
2022/03/27 03:05:11;;;;;;;3.42;1.00;;;;;;;2.65;100.00;100305.26;1682219;82;21036;-85
2022/03/27 03:07:41;;;;;;;4.30;0.90;;;;;;;2.60;100.00;100303.23;1695862;82;21556;-85
2022/03/27 03:10:09;;;;;;;3.60;1.20;;;;;;;2.59;100.00;100309.59;1698203;82;21216;-86
2022/03/27 03:12:36;;;;;;;3.45;1.02;;;;;;;2.62;100.00;100315.00;1700232;82;21057;-85
2022/03/27 03:15:04;;;;;;;5.42;1.30;;;;;;;2.61;100.00;100315.48;1744629;80;21479;-85
2022/03/27 03:17:30;;;;;;;4.60;1.60;;;;;;;2.59;100.00;100312.25;1741307;80;21194;-85
2022/03/27 03:19:57;;;;;;;3.58;1.37;;;;;;;2.59;100.00;100315.39;1744066;80;21183;-85
2022/03/27 03:22:24;;;;;;;4.92;1.07;;;;;;;2.57;100.00;100307.65;1741101;81;21906;-86
2022/03/27 03:24:50;;;;;;;3.25;1.27;;;;;;;2.57;100.00;100308.98;1741793;80;21046;-85
2022/03/27 03:27:17;;;;;;;6.53;1.52;;;;;;;2.57;100.00;100316.95;1742996;81;20996;-85
2022/03/27 03:29:43;;;;;;;4.45;1.50;;;;;;;2.57;100.00;100319.62;1744129;81;21038;-85
2022/03/27 03:32:10;;;;;;;3.95;1.10;;;;;;;2.59;100.00;100328.70;1741474;81;21073;-85
2022/03/27 03:34:36;;;;;;;4.12;1.35;;;;;;;2.57;100.00;100327.59;1742578;80;21136;-85
2022/03/27 03:37:03;;;;;;;3.90;1.30;;;;;;;2.56;100.00;100329.13;1737104;81;21057;-85
2022/03/27 03:39:30;;;;;;;5.08;1.15;;;;;;;2.55;100.00;100332.83;1744892;81;21022;-86
2022/03/27 03:41:56;;;;;;;7.97;1.65;;;;;;;2.51;100.00;100337.76;1740240;81;20975;-86
2022/03/27 03:44:24;;;;;;;8.98;1.50;;;;;;;2.48;100.00;100342.17;1743599;81;21572;-86
2022/03/27 03:46:50;;;;;;;9.10;1.95;;;;;;;2.44;100.00;100348.44;1684473;82;21964;-85
2022/03/27 03:49:17;;;;;;;5.50;1.45;;;;;;;2.42;100.00;100347.02;1692596;83;21559;-84
2022/03/27 03:51:43;;;;;;;4.17;1.17;;;;;;;2.40;100.00;100350.39;1685584;82;20986;-85
2022/03/27 03:54:09;;;;;;;4.85;1.52;;;;;;;2.38;100.00;100352.44;1696166;82;21254;-86
2022/03/27 03:56:38;;;;;;;5.28;1.10;;;;;;;2.37;100.00;100356.13;1695412;81;21170;-85
2022/03/27 03:59:05;;;;;;;5.65;1.30;;;;;;;2.36;100.00;100358.50;1692753;82;21957;-86
2022/03/27 04:01:31;;;;;;;6.47;0.98;;;;;;;2.40;100.00;100365.02;1702286;82;21083;-86
2022/03/27 04:03:57;;;;;;;5.22;1.15;;;;;;;2.47;100.00;100368.45;1689496;83;21128;-86
2022/03/27 04:06:24;;;;;;;4.83;0.90;;;;;;;2.54;100.00;100363.13;1690066;82;21010;-86
2022/03/27 04:08:50;;;;;;;5.37;1.00;;;;;;;2.60;100.00;100368.40;1686485;82;21081;-86
2022/03/27 04:11:17;;;;;;;3.25;0.80;;;;;;;2.68;100.00;100370.81;1689954;82;21164;-87
2022/03/27 04:13:45;;;;;;;6.80;1.22;;;;;;;2.76;100.00;100373.72;1695649;82;21680;-87
2022/03/27 04:16:13;;;;;;;2.85;1.07;;;;;;;2.84;100.00;100380.64;1689286;83;21664;-87
2022/03/27 04:18:39;;;;;;;3.52;1.10;;;;;;;2.91;100.00;100373.42;1698578;83;21576;-88
2022/03/27 04:21:06;;;;;;;10.05;1.65;;;;;;;3.01;100.00;100371.64;1698428;83;21040;-88
2022/03/27 04:23:32;;;;;;;2.47;0.88;;;;;;;3.25;100.00;100385.48;1696862;83;21188;-88
2022/03/27 04:25:58;;;;;;;4.42;0.62;;;;;;;4.36;100.00;100384.30;1689018;83;21082;-88
2022/03/27 04:28:25;;;;;;;3.17;0.93;;;;;;;6.13;100.00;100391.09;1692306;83;21068;-89
2022/03/27 04:30:51;;;;;;;6.35;1.02;;;;;;;7.79;100.00;100383.84;1683368;83;21013;-90
2022/03/27 04:33:17;;;;;;;6.12;1.00;;;;;;;9.30;100.00;100385.61;1673762;83;21350;-88
2022/03/27 04:35:45;;;;;;;3.42;0.75;;;;;;;10.24;100.00;100390.25;1693537;83;21005;-90
2022/03/27 04:38:12;;;;;;;2.87;1.05;;;;;;;11.04;100.00;100383.77;1693660;83;20997;-89
2022/03/27 04:40:38;;;;;;;2.87;1.05;;;;;;;11.73;100.00;100381.05;1681762;83;21599;-89
2022/03/27 04:43:05;;;;;;;7.10;1.12;;;;;;;12.54;100.00;100392.17;1690491;83;21072;-90
2022/03/27 04:45:32;;;;;;;4.50;1.10;;;;;;;13.35;95.38;100386.82;1691435;83;21296;-89
2022/03/27 04:47:58;;;;;;;3.25;1.10;;;;;;;14.17;92.98;100390.61;1698737;83;21216;-90
2022/03/27 04:50:24;;;;;;;5.95;1.32;;;;;;;14.68;79.06;100402.23;1685050;83;21097;-90
2022/03/27 04:52:51;;;;;;;2.00;1.00;;;;;;;15.42;65.45;100396.48;1701773;83;21049;-92
2022/03/27 04:55:17;;;;;;;1.70;0.85;;;;;;;16.22;66.80;100388.29;1696501;83;21045;-90
2022/03/27 04:57:43;;;;;;;4.47;0.90;;;;;;;16.67;53.93;100389.23;1684117;83;21172;-91
2022/03/27 05:02:42;;;;;;;5.05;1.20;;;;;;;17.56;53.16;100393.71;1616523;86;21103;-91
2022/03/27 05:05:11;;;;;;;10.13;1.25;;;;;;;17.87;45.36;100385.59;1614277;87;21085;-92
2022/03/27 05:07:40;;;;;;;3.62;1.22;;;;;;;18.08;48.38;100389.36;1614057;86;21513;-92
2022/03/27 05:10:07;;;;;;;2.35;1.00;;;;;;;18.65;46.42;100388.56;1615827;87;21619;-92
2022/03/27 05:12:34;;;;;;;3.55;1.20;;;;;;;18.98;43.78;100390.30;1620991;87;21956;-92
2022/03/27 05:15:00;;;;;;;8.30;1.47;;;;;;;19.57;43.44;100395.22;1617392;87;21561;-91
2022/03/27 05:17:27;;;;;;;3.67;1.05;;;;;;;20.35;40.64;100393.59;1616908;87;21763;-91
2022/03/27 05:19:53;;;;;;;2.17;0.95;;;;;;;20.39;39.89;100392.36;1614742;88;21143;-90
2022/03/27 05:22:19;;;;;;;4.37;1.10;;;;;;;20.69;39.06;100399.20;1615962;87;21154;-89
2022/03/27 05:24:46;;;;;;;4.58;1.20;;;;;;;20.99;37.83;100400.73;1618174;87;21202;-90
2022/03/27 05:27:13;;;;;;;4.42;1.22;;;;;;;21.24;37.71;100406.36;1618155;87;21128;-89
2022/03/27 05:29:39;;;;;;;3.80;0.98;;;;;;;21.19;33.05;100407.35;1617724;87;21127;-91
2022/03/27 05:32:07;;;;;;;2.95;0.90;;;;;;;21.35;35.50;100406.72;1617584;87;21148;-91
2022/03/27 05:34:34;;;;;;;3.72;1.10;;;;;;;21.39;34.04;100409.87;1616539;87;21064;-91
2022/03/27 05:37:00;;;;;;;4.08;1.12;;;;;;;21.67;34.49;100413.37;1617579;87;21242;-91
2022/03/27 05:39:26;;;;;;;2.15;1.20;;;;;;;22.12;32.15;100424.32;1609653;87;21119;-90
2022/03/27 05:41:52;;;;;;;3.83;1.07;;;;;;;;;;1595894;88;21211;-91
2022/03/27 05:44:18;;;;;;;4.75;1.12;;;;;;;21.87;31.25;100423.47;1625831;87;21590;-92
2022/03/27 05:46:44;;;;;;;3.90;1.40;;;;;;;22.19;30.02;100428.69;1655345;85;21487;-90
2022/03/27 05:49:11;;;;;;;3.30;1.57;;;;;;;22.26;30.00;100425.95;1658481;85;21099;-91
2022/03/27 05:51:37;;;;;;;2.45;1.25;;;;;;;22.31;29.57;100430.64;1652559;85;21240;-92
2022/03/27 05:54:03;;;;;;;3.20;1.10;;;;;;;22.32;29.60;100417.70;1656696;85;21598;-92
2022/03/27 05:56:30;;;;;;;3.45;1.20;;;;;;;21.48;28.18;100424.29;1659086;85;21121;-94
2022/03/27 05:58:57;;;;;;;7.20;1.00;;;;;;;19.86;29.87;100456.63;1666550;82;21097;-90
2022/03/27 06:01:23;;;;;;;5.70;1.00;;;;;;;18.29;29.94;100444.14;1740605;81;21076;-92
2022/03/27 06:03:49;;;;;;;4.75;0.70;;;;;;;17.05;31.10;100461.11;1739927;81;20935;-91
2022/03/27 06:06:16;;;;;;;1.72;0.90;;;;;;;16.03;32.35;100464.48;1716012;81;20963;-91
2022/03/27 06:08:42;;;;;;;3.67;0.62;;;;;;;15.72;33.30;100469.66;1740405;81;21022;-93
2022/03/27 06:11:08;;;;;;;5.50;0.90;;;;;;;15.52;32.30;100477.55;1741383;81;20925;-91
2022/03/27 06:13:36;;;;;;;7.62;0.88;;;;;;;14.24;34.15;100485.95;1746720;81;21059;-92
2022/03/27 06:16:03;;;;;;;3.10;0.60;;;;;;;12.93;34.69;100505.02;1739023;81;21108;-89
2022/03/27 06:18:29;;;;;;;0.60;0.37;;;;;;;11.67;35.68;100510.35;1741820;81;21117;-89
2022/03/27 06:20:56;;;;;;;4.20;0.40;;;;;;;10.72;37.17;100505.27;1740965;81;21001;-91
2022/03/27 06:23:22;;;;;;;0.93;0.40;;;;;;;10.07;38.22;100513.47;1742948;81;21082;-90
2022/03/27 06:25:48;;;;;;;0.88;0.50;;;;;;;9.37;39.59;100517.97;1742656;81;21898;-87
2022/03/27 06:28:14;;;;;;;2.52;0.53;;;;;;;8.80;40.72;100513.03;1744281;81;21674;-88
2022/03/27 06:30:41;;;;;;;2.85;0.45;;;;;;;8.69;41.51;100517.99;1736757;81;21062;-85
2022/03/27 09:13:50;;;;;;;0.78;0.47;;;;;;;9.83;34.97;100698.73;1715737;82;21022;-83
2022/03/27 09:16:17;;;;;;;0.68;0.30;;;;;;;8.82;35.98;100699.83;1722970;82;21510;-82
2022/03/27 09:18:49;;;;;;;2.95;0.47;;;;;;;8.25;37.22;100709.84;1700567;82;21338;-83
2022/03/27 09:21:21;;;;;;;0.60;0.40;;;;;;;7.88;37.83;100714.23;1718300;82;21514;-84
2022/03/27 09:24:02;;;;;;;0.70;0.40;;;;;;;7.76;37.52;100738.42;1718054;82;21506;-83
2022/03/27 09:26:32;;;;;;;5.62;1.20;;;;;;;7.59;37.53;100728.14;1694074;82;21562;-82
2022/03/27 09:29:11;;;;;;;2.95;0.50;;;;;;;7.51;37.98;100729.34;1721423;82;21511;-83
2022/03/27 09:31:38;;;;;;;5.40;0.57;;;;;;;7.69;37.87;100739.09;1721174;81;21502;-82
2022/03/27 09:34:07;;;;;;;1.85;0.53;;;;;;;7.92;38.02;100729.64;1719764;82;21399;-82
2022/03/27 09:36:40;;;;;;;1.07;0.53;;;;;;;8.54;37.30;100733.47;1721286;81;21629;-82
2022/03/27 09:39:19;;;;;;;1.50;0.45;;;;;;;8.75;36.72;100726.56;1718859;82;21132;-83
2022/03/27 09:44:36;;;;;;;0.20;0.20;;;;;;;7.83;36.83;100746.36;1689655;82;21515;-83
2022/03/27 09:47:10;;;;;;;2.40;0.40;;;;;;;7.39;37.17;100756.70;1699344;82;21351;-84
2022/03/27 09:49:42;;;;;;;1.30;0.30;;;;;;;7.35;37.81;100754.98;1703957;81;21114;-83
2022/03/27 09:52:17;;;;;;;5.90;0.55;;;;;;;7.55;37.65;100758.64;1708826;82;21140;-83
2022/03/27 09:54:55;;;;;;;2.10;0.60;;;;;;;7.67;37.45;100751.92;1701024;81;21518;-83
2022/03/27 09:57:32;;;;;;;0.95;0.50;;;;;;;7.66;37.34;100766.39;1691984;81;21817;-83
2022/03/27 10:00:21;;;;;;;1.55;0.50;;;;;;;7.58;37.08;100764.88;1692259;82;20996;-82
2022/03/27 10:02:51;;;;;;;2.05;0.50;;;;;;;7.60;36.64;100773.52;1674603;82;20958;-83
2022/03/27 10:05:20;;;;;;;1.02;0.40;;;;;;;7.58;36.65;100786.33;1701099;81;21146;-82
2022/03/27 10:07:54;;;;;;;5.50;0.50;;;;;;;7.55;36.46;100777.41;1691597;81;21092;-83
2022/03/27 10:10:28;;;;;;;2.62;0.45;;;;;;;7.66;36.35;100792.68;1695017;82;21249;-84
2022/03/27 10:12:58;;;;;;;1.47;0.37;;;;;;;7.66;36.23;100805.28;1701342;81;21129;-83
2022/03/27 10:15:29;;;;;;;1.67;0.40;;;;;;;7.60;35.61;100805.69;1706193;81;21069;-83
2022/03/27 10:18:06;;;;;;;1.10;0.40;;;;;;;7.57;35.32;100812.87;1701356;81;21646;-82
2022/03/27 10:20:36;;;;;;;2.42;0.60;;;;;;;7.49;35.05;100802.48;1633827;85;21692;-82
2022/03/27 10:23:12;;;;;;;1.85;0.80;;;;;;;7.30;35.27;100790.27;1549764;90;21117;-82
2022/03/27 10:25:46;;;;;;;5.87;0.55;;;;;;;7.36;35.43;100809.45;1540545;91;21121;-82
2022/03/27 10:28:14;;;;;;;2.42;0.60;;;;;;;7.45;35.88;100801.34;1536352;90;21633;-84
2022/03/27 10:30:43;;;;;;;4.70;0.40;;;;;;;7.35;35.14;100823.34;1537581;90;21073;-83
2022/03/27 10:33:11;;;;;;;3.40;0.65;;;;;;;7.16;34.98;100808.44;1534994;90;21101;-82
2022/03/27 10:35:49;;;;;;;1.72;0.57;;;;;;;7.23;35.13;100804.58;1545103;90;21294;-83
2022/03/27 10:38:44;;;;;;;1.77;0.47;;;;;;;7.33;34.79;100812.59;1532400;90;21140;-83
2022/03/27 10:41:27;;;;;;;2.27;0.30;;;;;;;7.29;35.04;100820.26;1544357;90;21559;-82
2022/03/27 10:44:14;;;;;;;2.08;0.50;;;;;;;7.18;35.37;100820.56;1557311;89;21694;-82
2022/03/27 10:46:40;;;;;;;4.65;0.55;;;;;;;7.13;35.76;100841.05;1492012;94;21191;-82
2022/03/27 10:49:18;;;;;;;0.70;0.40;;;;;;;7.08;35.62;100831.02;1502672;94;21191;-83
2022/03/27 10:51:47;;;;;;;2.37;0.37;;;;;;;6.95;35.22;100828.56;1468582;95;21141;-81
2022/03/27 10:54:20;;;;;;;3.98;0.60;;;;;;;7.15;35.04;100830.41;1460737;96;21603;-82
2022/03/27 10:56:51;;;;;;;1.62;0.40;;;;;;;7.34;34.72;100831.64;1416352;98;21236;-83
2022/03/27 10:59:23;;;;;;;4.87;0.30;;;;;;;7.62;35.28;100836.31;1401274;99;21060;-83
2022/03/27 11:02:03;;;;;;;2.42;0.30;;;;;;;7.70;34.11;100846.67;1408718;100;21293;-87
2022/03/27 11:04:44;;;;;;;2.52;0.33;;;;;;;7.77;33.14;100828.59;1400005;100;47715;-82
2022/03/27 11:07:20;;;;;;;2.80;0.40;;;;;;;7.84;33.44;100840.54;1423740;100;21692;-84
2022/03/27 11:09:47;;;;;;;1.10;0.40;;;;;;;8.22;33.33;100835.97;1415973;99;21173;-83
2022/03/27 11:12:31;;;;;;;3.80;0.40;;;;;;;8.50;32.65;100821.78;1414915;99;21173;-84
2022/03/27 11:15:06;;;;;;;2.98;0.50;;;;;;;8.01;32.65;100841.98;1414296;99;21389;-83
2022/03/27 11:20:28;;;;;;;1.85;0.53;;;;;;;7.64;33.60;100835.00;1405273;99;21974;-83
2022/03/27 11:23:04;;;;;;;1.72;0.50;;;;;;;7.79;33.87;100845.78;1422761;94;21303;-82
2022/03/27 11:25:45;;;;;;;0.90;0.30;;;;;;;7.81;33.99;100842.35;1471979;94;21326;-83
2022/03/27 11:28:14;;;;;;;4.40;0.82;;;;;;;7.88;34.14;100857.28;1476969;94;21697;-83
2022/03/27 11:30:58;;;;;;;2.45;0.50;;;;;;;7.82;34.05;100853.36;1484533;94;21107;-84
2022/03/27 11:33:30;;;;;;;3.30;0.55;;;;;;;7.88;34.19;100839.84;1487083;94;21099;-84
2022/03/27 11:36:12;;;;;;;4.83;0.30;;;;;;;7.84;33.84;100847.25;1479543;94;21196;-84
2022/03/27 11:39:01;;;;;;;0.40;0.30;;;;;;;7.65;34.19;100862.14;1501394;94;21085;-84
2022/03/27 11:41:46;;;;;;;2.47;0.37;;;;;;;7.73;34.61;100867.66;1496089;93;21086;-83
2022/03/27 11:47:25;;;;;;;3.15;0.95;;;;;;;8.19;34.18;100859.26;1457709;96;21234;-82
2022/03/27 11:49:52;;;;;;;4.65;0.53;;;;;;;8.33;34.01;100858.47;1456071;94;21224;-84
2022/03/27 11:52:24;;;;;;;3.10;0.60;;;;;;;8.86;34.03;100848.75;1483855;94;21665;-82
2022/03/27 11:55:08;;;;;;;3.60;0.60;;;;;;;8.98;33.75;100872.07;1505003;92;21371;-83
2022/03/27 11:57:51;;;;;;;;;;;;;;;9.22;33.61;100858.77;1517323;92;21156;-83
2022/03/27 12:00:42;;;;;;;2.12;0.60;;;;;;;9.31;34.01;100858.64;1503837;92;20174;-83
2022/03/27 12:03:23;;;;;;;3.72;0.50;;;;;;;9.13;33.50;100879.05;1511241;92;21529;-83
2022/03/27 12:05:51;;;;;;;0.95;0.53;;;;;;;8.73;33.94;100874.56;1509952;93;21086;-83
2022/03/27 12:08:18;;;;;;;2.67;0.62;;;;;;;8.33;34.48;100876.73;1501926;93;21115;-84
2022/03/27 12:10:49;;;;;;;3.35;0.50;;;;;;;8.09;35.04;100876.48;1516536;93;21319;-83
2022/03/27 12:13:16;;;;;;;2.42;0.60;;;;;;;7.73;35.54;100888.62;1529520;92;21101;-84
2022/03/27 12:15:52;;;;;;;3.42;0.50;;;;;;;7.48;35.77;100910.28;1528894;93;21078;-83
2022/03/27 12:18:39;;;;;;;2.12;0.30;;;;;;;7.31;36.17;100899.13;1603376;88;21003;-83
2022/03/27 12:21:09;;;;;;;4.20;0.53;;;;;;;7.10;36.70;100897.27;1600250;88;21314;-82
2022/03/27 12:23:49;;;;;;;2.95;0.50;;;;;;;6.93;37.36;100904.31;1596270;88;21117;-83
2022/03/27 12:32:08;;;;;;;0.85;0.42;;;;;;;7.26;37.39;100901.98;1603106;89;21214;-82
2022/03/27 12:34:43;;;;;;;2.67;0.75;;;;;;;6.97;37.13;100900.97;1609337;87;21240;-83
2022/03/27 12:37:24;;;;;;;2.70;0.57;;;;;;;6.81;38.18;100917.66;1623584;83;21036;-84
2022/03/27 12:39:56;;;;;;;2.80;0.60;;;;;;;6.74;39.06;100915.61;1663945;83;21025;-80
2022/03/27 12:42:37;;;;;;;2.77;0.50;;;;;;;6.77;40.08;100936.06;1715666;82;21490;-83
2022/03/27 12:45:19;;;;;;;3.58;0.60;;;;;;;7.00;40.30;100918.42;1679734;83;21567;-81
2022/03/27 12:47:55;;;;;;;2.40;0.47;;;;;;;7.16;40.18;100925.02;1675050;83;21118;-81
2022/03/27 12:50:32;;;;;;;5.10;0.50;;;;;;;7.38;39.59;100918.09;1682533;82;21114;-80
2022/03/27 12:53:06;;;;;;;5.22;0.98;;;;;;;7.52;39.63;100917.33;1669755;83;21645;-81
2022/03/27 12:55:48;;;;;;;1.77;0.50;;;;;;;7.30;39.50;100931.81;1643487;86;21028;-81
2022/03/27 12:58:42;;;;;;;3.33;0.50;;;;;;;7.00;39.75;100947.89;1676891;84;21077;-81
2022/03/27 13:01:16;;;;;;;1.85;0.90;;;;;;;6.39;40.10;100960.41;1672431;84;21547;-81
2022/03/27 13:04:06;;;;;;;1.30;0.60;;;;;;;6.01;39.77;100948.56;1683111;83;21172;-82
2022/03/27 13:06:58;;;;;;;1.30;0.40;;;;;;;6.00;39.88;100950.42;1675310;83;20987;-82
2022/03/27 13:09:23;;;;;;;3.22;0.60;;;;;;;6.28;39.81;100935.20;1666523;84;21061;-83
2022/03/27 13:11:50;;;;;;;2.05;0.78;;;;;;;6.29;39.96;100940.83;1688890;82;21033;-83
2022/03/27 13:14:20;;;;;;;8.20;0.80;;;;;;;6.19;41.20;100963.81;1668833;85;21287;-82
2022/03/27 13:16:49;;;;;;;9.73;0.90;;;;;;;5.85;49.40;101004.23;1663993;85;21030;-83
2022/03/27 13:19:23;;;;;;;3.17;0.68;;;;;;;5.24;53.51;101015.02;1640748;85;21082;-82
2022/03/27 13:21:59;;;;;;;2.25;0.90;;;;;;;4.85;61.69;101010.66;1599668;88;21125;-82
2022/03/27 13:24:29;;;;;;;3.72;0.70;;;;;;;4.52;62.08;101012.92;1617693;86;21105;-83
2022/03/27 13:27:00;;;;;;;1.67;0.70;;;;;;;4.51;61.41;101013.15;1622331;87;21180;-83
2022/03/27 13:29:27;;;;;;;2.05;0.72;;;;;;;4.57;58.33;101012.31;1670589;85;21020;-82
2022/03/27 13:31:54;;;;;;;2.92;0.68;;;;;;;4.47;58.00;101000.75;1637418;85;21535;-85
2022/03/27 13:36:55;;;;;;;7.37;0.98;;;;;;;4.70;57.60;100991.42;1618280;86;21149;-82
2022/03/27 13:39:25;;;;;;;2.05;0.50;;;;;;;4.77;55.15;101011.73;1606408;86;21229;-82
2022/03/27 13:44:42;;;;;;;1.17;0.47;;;;;;;4.67;53.74;101011.86;1615261;86;21130;-82
2022/03/27 13:47:13;;;;;;;1.70;0.80;;;;;;;4.79;55.13;101016.84;1608467;86;21604;-83
2022/03/27 13:49:42;;;;;;;2.87;0.60;;;;;;;4.94;53.52;101013.42;1616547;86;21217;-82
2022/03/27 13:52:09;;;;;;;6.50;0.80;;;;;;;4.80;53.54;101004.34;1590059;88;21139;-84
2022/03/27 13:54:37;;;;;;;2.98;0.80;;;;;;;4.68;53.39;101014.86;1573189;87;21007;-85
2022/03/27 13:57:05;;;;;;;6.28;1.12;;;;;;;4.60;55.71;101044.44;1584519;87;21128;-83
2022/03/27 13:59:32;;;;;;;5.37;1.15;;;;;;;4.24;62.99;101064.41;1581227;88;21113;-84
2022/03/27 14:02:03;;;;;;;1.27;0.50;;;;;;;3.96;61.62;101060.08;1601777;88;21027;-84
2022/03/27 14:04:29;;;;;;;5.40;0.60;;;;;;;3.80;64.46;101051.16;1579827;88;21043;-84
2022/03/27 14:06:56;;;;;;;22.62;1.60;;;;;;;3.63;66.23;101062.72;1604958;88;21236;-84
2022/03/27 14:09:23;;;;;;;4.70;0.90;;;;;;;3.49;63.93;101063.19;1548794;90;21157;-85
2022/03/27 14:11:50;;;;;;;2.40;0.90;;;;;;;3.39;64.05;101058.77;1544321;91;21162;-83
2022/03/27 14:14:17;;;;;;;4.87;0.90;;;;;;;3.41;65.32;101060.70;1546191;90;21145;-84
2022/03/27 14:16:45;;;;;;;2.35;0.70;;;;;;;3.50;63.29;101044.87;1542359;91;21198;-85
2022/03/27 14:19:14;;;;;;;4.65;1.15;;;;;;;3.59;59.79;101052.16;1556546;90;21264;-85
2022/03/27 14:21:43;;;;;;;3.02;1.00;;;;;;;3.69;58.59;101065.91;1529826;91;21143;-83
2022/03/27 14:24:11;;;;;;;4.10;0.95;;;;;;;3.84;55.83;101065.72;1545253;91;21150;-84
2022/03/27 14:26:39;;;;;;;3.92;0.75;;;;;;;3.87;55.59;101072.78;1547802;90;21628;-83
2022/03/27 14:29:05;;;;;;;4.60;0.78;;;;;;;3.86;56.71;101073.83;1541919;91;21254;-85
2022/03/27 14:31:34;;;;;;;5.83;0.80;;;;;;;3.79;56.83;101068.16;1543844;91;21070;-87
2022/03/27 14:34:03;;;;;;;1.75;0.60;;;;;;;3.67;54.69;101057.80;1632545;83;21504;-83
2022/03/27 14:36:33;;;;;;;8.13;0.80;;;;;;;3.62;54.50;101103.20;1721538;81;21586;-85
2022/03/27 14:39:02;;;;;;;2.40;0.65;;;;;;;3.56;55.66;101101.35;1711869;82;21524;-84
2022/03/27 14:41:29;;;;;;;4.83;0.70;;;;;;;3.54;59.47;101108.71;1675572;83;21915;-85
2022/03/27 14:43:56;;;;;;;5.37;0.70;;;;;;;3.47;63.62;101105.70;1661907;84;21167;-84
2022/03/27 14:46:24;;;;;;;3.02;0.50;;;;;;;3.42;65.67;101108.98;1670685;84;21116;-83
2022/03/27 14:48:52;;;;;;;1.07;0.72;;;;;;;3.42;65.73;101114.31;1671543;84;21037;-83